Time;durP1;ratioP1;P1;durP2;ratioP2;P2;SDS_P1;SDS_P2;PMS_P1;PMS_P2;Temp;Humidity;BMP_temperature;BMP_pressure;BME280_temperature;BME280_humidity;BME280_pressure;Samples;Min_cycle;Max_cycle;Signal;HPM_P1;HPM_P2
2021/06/24 00:00:44;;;;;;;3.30;1.50;;;18.10;99.90;;;;;;5033842;28;20555;-74
2021/06/24 00:03:11;;;;;;;1.30;1.20;;;18.20;99.90;;;;;;5033851;28;20215;-75
2021/06/24 00:05:39;;;;;;;2.85;1.73;;;18.30;99.90;;;;;;5033653;28;20224;-74
2021/06/24 00:08:06;;;;;;;1.48;1.38;;;18.30;99.90;;;;;;5033834;28;20204;-73
2021/06/24 00:10:34;;;;;;;1.50;1.40;;;18.40;99.90;;;;;;5033516;28;20658;-71
2021/06/24 00:13:01;;;;;;;1.40;1.30;;;18.40;99.90;;;;;;5033628;28;20200;-71
2021/06/24 00:15:28;;;;;;;1.70;1.52;;;18.40;99.90;;;;;;5033299;28;20334;-72
2021/06/24 00:17:55;;;;;;;1.15;1.05;;;18.50;99.90;;;;;;5033314;28;20772;-71
2021/06/24 00:20:22;;;;;;;1.73;1.63;;;18.40;99.90;;;;;;5033452;28;20299;-71
2021/06/24 00:22:49;;;;;;;1.35;1.25;;;18.40;99.90;;;;;;5033297;28;20215;-73
2021/06/24 00:25:16;;;;;;;2.65;1.60;;;18.40;99.90;;;;;;5033067;28;20318;-73
2021/06/24 00:27:44;;;;;;;2.17;1.55;;;18.50;99.90;;;;;;5033142;28;20291;-74
2021/06/24 00:30:13;;;;;;;1.30;1.20;;;18.60;99.90;;;;;;5033211;28;20204;-72
2021/06/24 00:32:40;;;;;;;2.78;1.65;;;18.60;99.90;;;;;;5033310;28;20207;-73
2021/06/24 00:35:08;;;;;;;3.85;1.30;;;18.50;99.90;;;;;;5033255;28;20232;-74
2021/06/24 00:37:36;;;;;;;1.83;1.70;;;18.40;99.90;;;;;;5033102;28;20290;-75
2021/06/24 00:40:05;;;;;;;1.83;1.58;;;18.30;99.90;;;;;;5032738;28;20295;-74
2021/06/24 00:42:32;;;;;;;2.25;2.08;;;18.20;99.90;;;;;;5032682;28;20210;-72
2021/06/24 00:45:00;;;;;;;4.00;1.90;;;18.20;99.90;;;;;;5032812;28;20568;-72
2021/06/24 00:47:27;;;;;;;2.47;1.90;;;18.30;99.90;;;;;;5034070;28;20295;-76
2021/06/24 00:49:54;;;;;;;1.88;1.73;;;18.30;99.90;;;;;;5034897;28;20536;-74
2021/06/24 00:52:21;;;;;;;2.28;2.15;;;18.30;99.90;;;;;;5034603;28;20627;-75
2021/06/24 00:54:48;;;;;;;2.45;1.67;;;18.40;99.90;;;;;;5034550;28;20226;-75
2021/06/24 00:57:15;;;;;;;1.80;1.70;;;18.30;99.90;;;;;;5034314;28;20228;-75
2021/06/24 00:59:42;;;;;;;3.22;2.00;;;18.30;99.90;;;;;;5034220;28;20214;-75
2021/06/24 01:02:10;;;;;;;1.80;1.70;;;18.30;99.90;;;;;;5034367;28;20200;-75
2021/06/24 01:04:37;;;;;;;3.55;1.60;;;18.30;99.90;;;;;;5034211;28;20304;-75
2021/06/24 01:07:05;;;;;;;3.05;2.10;;;18.30;99.90;;;;;;5034389;28;20240;-76
2021/06/24 01:09:32;;;;;;;1.50;1.40;;;18.20;99.90;;;;;;5034408;28;20211;-76
2021/06/24 01:12:01;;;;;;;2.33;2.13;;;18.30;99.90;;;;;;5033655;28;20207;-75
2021/06/24 01:14:28;;;;;;;2.72;1.80;;;18.20;99.90;;;;;;5033824;28;20291;-75
2021/06/24 01:16:55;;;;;;;4.78;2.30;;;18.20;99.90;;;;;;5034476;28;20310;-75
2021/06/24 01:19:23;;;;;;;3.08;2.35;;;18.30;99.90;;;;;;5034101;28;20750;-75
2021/06/24 01:21:50;;;;;;;2.72;2.40;;;18.10;99.90;;;;;;5034120;28;20536;-75
2021/06/24 01:24:19;;;;;;;2.17;1.90;;;18.00;99.90;;;;;;5034109;28;20208;-75
2021/06/24 01:26:47;;;;;;;2.65;1.80;;;17.90;99.90;;;;;;5033890;28;20615;-75
2021/06/24 01:29:14;;;;;;;2.63;2.40;;;17.80;99.90;;;;;;5033966;28;20291;-75
2021/06/24 01:31:41;;;;;;;2.33;2.10;;;17.70;99.90;;;;;;5033692;28;20303;-75
2021/06/24 01:34:09;;;;;;;3.60;2.70;;;17.60;99.90;;;;;;5034149;28;20306;-75
2021/06/24 01:36:37;;;;;;;2.55;2.35;;;17.70;99.90;;;;;;5033920;28;20224;-75
2021/06/24 01:39:06;;;;;;;3.28;2.97;;;17.70;99.90;;;;;;5033739;28;20295;-75
2021/06/24 01:41:34;;;;;;;3.30;2.78;;;17.70;99.90;;;;;;5033740;28;20200;-75
2021/06/24 01:44:01;;;;;;;2.83;2.55;;;17.80;99.90;;;;;;5033836;28;20295;-75
2021/06/24 01:46:28;;;;;;;3.40;2.35;;;17.90;99.90;;;;;;5034225;28;20316;-75
2021/06/24 01:48:55;;;;;;;3.95;2.65;;;18.10;99.90;;;;;;5033982;28;20295;-76
2021/06/24 01:51:23;;;;;;;3.05;2.60;;;18.00;99.90;;;;;;5033436;28;20300;-75
2021/06/24 01:53:50;;;;;;;2.65;2.38;;;18.10;99.90;;;;;;5033577;28;20215;-75
2021/06/24 01:56:17;;;;;;;3.00;2.70;;;18.10;99.90;;;;;;5033733;28;20235;-75
2021/06/24 01:58:45;;;;;;;2.78;2.22;;;18.00;99.90;;;;;;5033627;28;20641;-75
2021/06/24 02:01:12;;;;;;;3.38;2.55;;;18.10;99.90;;;;;;5033117;28;20574;-75
2021/06/24 02:03:39;;;;;;;1.95;1.85;;;18.20;99.90;;;;;;5033868;28;20204;-75
2021/06/24 02:06:06;;;;;;;3.35;3.00;;;18.30;99.90;;;;;;5033339;28;20720;-75
2021/06/24 02:08:36;;;;;;;3.05;2.45;;;18.40;99.90;;;;;;5033796;28;20287;-75
2021/06/24 02:11:04;;;;;;;4.05;3.13;;;18.50;99.90;;;;;;5037413;28;20204;-75
2021/06/24 02:13:31;;;;;;;2.67;2.45;;;18.50;99.90;;;;;;5037460;28;20204;-75
2021/06/24 02:15:59;;;;;;;2.08;1.90;;;18.50;99.90;;;;;;5036939;28;20250;-75
2021/06/24 02:18:26;;;;;;;3.28;2.97;;;18.50;99.90;;;;;;5037561;28;20311;-76
2021/06/24 02:20:53;;;;;;;2.72;2.08;;;18.50;99.90;;;;;;5036975;28;20200;-75
2021/06/24 02:23:20;;;;;;;2.70;2.50;;;18.60;99.90;;;;;;5037369;28;20204;-75
2021/06/24 02:25:47;;;;;;;2.50;2.30;;;18.50;99.90;;;;;;5037470;28;20314;-76
2021/06/24 02:28:14;;;;;;;3.20;2.20;;;18.40;99.90;;;;;;5037647;28;20200;-75
2021/06/24 02:30:41;;;;;;;3.08;2.00;;;18.40;99.90;;;;;;5036850;28;20303;-75
2021/06/24 02:33:10;;;;;;;2.05;1.52;;;18.40;99.90;;;;;;5036969;28;20212;-75
2021/06/24 02:35:38;;;;;;;2.38;2.13;;;18.40;99.90;;;;;;5037264;28;20232;-75
2021/06/24 02:38:06;;;;;;;2.33;1.85;;;18.40;99.90;;;;;;5036947;28;20315;-75
2021/06/24 02:40:34;;;;;;;2.35;2.15;;;18.40;99.90;;;;;;5036557;28;20697;-75
2021/06/24 02:43:01;;;;;;;2.20;2.05;;;18.30;99.90;;;;;;5037145;28;20300;-75
2021/06/24 02:45:27;;;;;;;1.90;1.70;;;18.40;99.90;;;;;;5037075;28;20651;-75
2021/06/24 02:47:54;;;;;;;2.20;2.00;;;18.30;99.90;;;;;;5036742;28;20554;-75
2021/06/24 02:50:23;;;;;;;1.90;1.80;;;18.30;99.90;;;;;;5036239;28;20718;-75
2021/06/24 02:52:50;;;;;;;2.42;2.13;;;18.30;99.90;;;;;;5036804;28;20214;-75
2021/06/24 02:55:16;;;;;;;2.15;1.75;;;18.30;99.90;;;;;;5036471;28;20813;-75
2021/06/24 02:57:45;;;;;;;2.53;1.80;;;18.30;99.90;;;;;;5037108;28;20331;-75
2021/06/24 03:00:13;;;;;;;2.45;1.67;;;18.40;99.90;;;;;;5035981;28;20214;-75
2021/06/24 03:02:41;;;;;;;2.40;2.15;;;18.40;99.90;;;;;;5036476;28;20207;-75
2021/06/24 03:05:09;;;;;;;2.10;1.90;;;18.30;99.90;;;;;;5036215;28;20235;-74
2021/06/24 03:07:37;;;;;;;1.90;1.80;;;18.20;99.90;;;;;;5036524;28;20291;-75
2021/06/24 03:10:06;;;;;;;2.17;2.00;;;18.20;99.90;;;;;;5036373;28;20295;-74
2021/06/24 03:12:32;;;;;;;1.95;1.75;;;18.20;99.90;;;;;;5036760;28;20214;-75
2021/06/24 03:14:59;;;;;;;2.03;1.83;;;18.10;99.90;;;;;;5036143;28;20224;-75
2021/06/24 03:17:26;;;;;;;3.30;2.00;;;18.00;99.90;;;;;;5036234;28;20562;-75
2021/06/24 03:19:53;;;;;;;2.50;2.08;;;18.00;99.90;;;;;;5035608;28;20294;-75
2021/06/24 03:22:20;;;;;;;2.70;1.92;;;18.00;99.90;;;;;;5036276;28;20215;-75
2021/06/24 03:24:49;;;;;;;2.33;2.22;;;18.10;99.90;;;;;;5036122;28;20753;-75
2021/06/24 03:27:15;;;;;;;2.50;2.20;;;18.20;99.90;;;;;;5036599;28;20549;-76
2021/06/24 03:29:42;;;;;;;2.83;2.20;;;18.20;99.90;;;;;;5036023;28;20637;-75
2021/06/24 03:32:09;;;;;;;2.10;1.80;;;18.20;99.90;;;;;;5035494;28;20223;-75
2021/06/24 03:34:36;;;;;;;1.90;1.80;;;18.30;99.90;;;;;;5035930;28;20219;-75
2021/06/24 03:37:03;;;;;;;2.47;2.22;;;18.30;99.90;;;;;;5035816;28;20290;-75
2021/06/24 03:39:30;;;;;;;2.10;2.00;;;18.30;99.90;;;;;;5036080;28;20307;-75
2021/06/24 03:41:58;;;;;;;2.83;1.90;;;18.20;99.90;;;;;;5035331;28;20299;-75
2021/06/24 03:44:25;;;;;;;4.30;2.63;;;18.30;99.90;;;;;;5035432;28;20209;-74
2021/06/24 03:46:52;;;;;;;2.78;2.50;;;18.30;99.90;;;;;;5035722;28;20298;-75
2021/06/24 03:49:19;;;;;;;1.73;1.55;;;18.30;99.90;;;;;;5035628;28;20709;-75
2021/06/24 03:51:46;;;;;;;1.65;1.55;;;18.30;99.90;;;;;;5035298;28;20203;-74
2021/06/24 03:54:13;;;;;;;2.28;1.90;;;18.20;99.90;;;;;;5035851;28;20300;-75
2021/06/24 03:56:40;;;;;;;2.33;2.13;;;18.20;99.90;;;;;;5035443;28;20224;-75
2021/06/24 03:59:08;;;;;;;2.35;1.77;;;18.20;99.90;;;;;;5035435;28;20246;-74
2021/06/24 04:01:42;;;;;;;2.30;2.10;;;18.30;99.90;;;;;;5035400;28;20207;-74
2021/06/24 04:04:09;;;;;;;2.58;2.05;;;18.20;99.90;;;;;;5035315;28;20299;-75
2021/06/24 04:06:36;;;;;;;2.80;2.10;;;18.20;99.90;;;;;;5035501;28;20311;-75
2021/06/24 04:09:03;;;;;;;2.33;2.13;;;18.20;99.90;;;;;;5035200;28;20296;-74
2021/06/24 04:11:30;;;;;;;3.40;2.20;;;18.20;99.90;;;;;;5035029;28;20303;-74
2021/06/24 04:13:57;;;;;;;3.35;2.50;;;18.30;99.90;;;;;;5035217;28;20629;-75
2021/06/24 04:16:25;;;;;;;3.22;2.28;;;18.30;99.90;;;;;;5035267;28;20259;-75
2021/06/24 04:18:51;;;;;;;3.47;1.88;;;18.40;99.90;;;;;;5035373;28;20230;-74
2021/06/24 04:21:18;;;;;;;3.20;2.30;;;18.40;99.90;;;;;;5034690;28;20298;-75
2021/06/24 04:23:45;;;;;;;2.88;2.22;;;18.40;99.90;;;;;;5035038;28;20238;-75
2021/06/24 04:26:12;;;;;;;3.10;2.55;;;18.50;99.90;;;;;;5035284;28;20330;-75
2021/06/24 04:28:39;;;;;;;3.58;1.90;;;18.60;99.90;;;;;;5034964;28;20659;-75
2021/06/24 04:31:07;;;;;;;2.42;1.80;;;18.70;99.90;;;;;;5033655;28;20302;-75
2021/06/24 04:33:36;;;;;;;2.22;2.03;;;18.70;99.90;;;;;;5034951;28;20211;-74
2021/06/24 04:36:04;;;;;;;2.30;2.10;;;18.70;99.90;;;;;;5034667;28;20315;-75
2021/06/24 04:38:30;;;;;;;2.55;1.95;;;18.80;99.90;;;;;;5034838;28;20318;-75
2021/06/24 04:40:57;;;;;;;2.10;1.90;;;18.80;99.90;;;;;;5035581;28;20212;-74
2021/06/24 04:43:24;;;;;;;2.50;2.30;;;18.90;99.90;;;;;;5035554;28;20204;-75
2021/06/24 04:45:51;;;;;;;2.60;2.03;;;18.90;99.90;;;;;;5035102;28;20226;-75
2021/06/24 04:48:18;;;;;;;2.65;2.45;;;18.90;99.90;;;;;;5035485;28;20529;-75
2021/06/24 04:50:46;;;;;;;3.10;2.60;;;18.90;99.90;;;;;;5034802;28;20209;-75
2021/06/24 04:53:13;;;;;;;3.33;3.00;;;19.00;99.90;;;;;;5035112;28;20639;-75
2021/06/24 04:55:40;;;;;;;3.47;2.83;;;19.10;99.90;;;;;;5034936;28;20232;-75
2021/06/24 04:58:07;;;;;;;2.80;2.50;;;19.10;99.90;;;;;;5035755;28;20225;-75
2021/06/24 05:00:35;;;;;;;2.95;2.65;;;19.00;99.90;;;;;;5034780;28;20211;-75
2021/06/24 05:03:02;;;;;;;3.90;2.40;;;19.10;99.90;;;;;;5034787;28;20297;-75
2021/06/24 05:05:28;;;;;;;2.53;2.33;;;19.20;99.90;;;;;;5034310;28;20317;-75
2021/06/24 05:07:58;;;;;;;3.53;2.50;;;19.30;99.90;;;;;;5034713;28;20810;-75
2021/06/24 05:10:25;;;;;;;3.53;2.97;;;19.30;99.90;;;;;;5034383;28;20451;-75
2021/06/24 05:12:52;;;;;;;2.57;2.30;;;19.30;99.90;;;;;;5034691;28;20626;-75
2021/06/24 05:15:18;;;;;;;2.30;2.10;;;19.50;99.90;;;;;;5034478;28;21417;-75
2021/06/24 05:17:45;;;;;;;2.07;1.80;;;19.50;99.90;;;;;;5034257;28;20735;-75
2021/06/24 05:20:13;;;;;;;2.38;1.95;;;19.60;99.90;;;;;;5034418;28;20535;-75
2021/06/24 05:22:41;;;;;;;2.00;1.83;;;19.50;99.90;;;;;;5034334;28;20269;-75
2021/06/24 05:25:11;;;;;;;2.80;2.10;;;19.40;99.90;;;;;;5033959;28;20475;-75
2021/06/24 05:27:37;;;;;;;2.60;2.40;;;19.20;99.90;;;;;;5034561;28;20210;-75
2021/06/24 05:30:05;;;;;;;2.37;1.97;;;19.20;99.90;;;;;;5034114;28;20535;-74
2021/06/24 05:32:32;;;;;;;2.40;2.20;;;19.10;99.90;;;;;;5033756;28;20446;-75
2021/06/24 05:34:59;;;;;;;3.10;2.53;;;19.00;99.90;;;;;;5033939;28;20513;-75
2021/06/24 05:37:26;;;;;;;2.13;1.93;;;18.90;99.90;;;;;;5034151;28;20200;-75
2021/06/24 05:39:52;;;;;;;2.08;1.83;;;18.80;99.90;;;;;;5033835;28;20802;-74
2021/06/24 05:42:21;;;;;;;2.22;2.03;;;18.70;99.90;;;;;;5033914;28;20363;-75
2021/06/24 05:44:48;;;;;;;1.98;1.80;;;18.70;99.90;;;;;;5033557;28;20314;-75
2021/06/24 05:47:15;;;;;;;2.38;2.13;;;18.80;99.90;;;;;;5033605;28;20211;-75
2021/06/24 05:49:42;;;;;;;3.20;2.90;;;18.70;99.90;;;;;;5033866;28;20250;-75
2021/06/24 05:52:09;;;;;;;2.75;2.20;;;18.70;99.90;;;;;;5033923;28;20207;-75
2021/06/24 05:54:36;;;;;;;2.85;2.65;;;18.70;99.90;;;;;;5033417;28;20201;-75
2021/06/24 05:57:03;;;;;;;2.83;2.63;;;18.70;99.90;;;;;;5033485;28;20231;-75
2021/06/24 05:59:31;;;;;;;3.72;2.65;;;18.80;99.90;;;;;;5033890;28;20238;-75
2021/06/24 06:01:58;;;;;;;3.67;2.70;;;18.70;99.90;;;;;;5033469;28;20204;-74
2021/06/24 06:04:25;;;;;;;3.00;2.70;;;18.70;99.90;;;;;;5033385;28;20295;-75
2021/06/24 06:06:52;;;;;;;3.30;3.00;;;18.60;99.90;;;;;;5033645;28;20204;-75
2021/06/24 06:09:18;;;;;;;3.33;2.42;;;18.70;99.90;;;;;;5033826;28;20287;-75
2021/06/24 06:11:45;;;;;;;2.47;2.28;;;18.90;99.90;;;;;;5033384;28;20299;-75
2021/06/24 06:14:12;;;;;;;2.72;2.50;;;18.90;99.90;;;;;;5033521;28;20200;-75
2021/06/24 06:16:41;;;;;;;3.13;2.83;;;18.80;99.90;;;;;;5033792;28;20317;-75
2021/06/24 06:19:08;;;;;;;3.35;2.65;;;18.80;99.90;;;;;;5033822;28;20216;-75
2021/06/24 06:21:35;;;;;;;3.70;3.25;;;18.90;99.90;;;;;;5033695;28;20204;-75
2021/06/24 06:24:02;;;;;;;3.33;3.03;;;18.80;99.90;;;;;;5034067;28;20303;-75
2021/06/24 06:26:29;;;;;;;3.75;3.17;;;18.70;99.90;;;;;;5033749;28;20551;-75
2021/06/24 06:29:02;;;;;;;2.92;2.63;;;18.70;99.90;;;;;;5033869;28;20206;-75
2021/06/24 06:31:29;;;;;;;4.07;3.17;;;18.80;99.90;;;;;;5034466;28;20325;-75
2021/06/24 06:33:57;;;;;;;3.17;2.85;;;18.90;99.90;;;;;;5034590;28;20232;-75
2021/06/24 06:36:24;;;;;;;3.67;2.88;;;19.00;99.90;;;;;;5034234;28;20307;-75
2021/06/24 06:38:51;;;;;;;3.77;3.10;;;19.10;99.90;;;;;;5034804;28;20239;-75
2021/06/24 06:41:18;;;;;;;2.53;2.30;;;19.20;99.90;;;;;;5033380;28;20854;-74
2021/06/24 06:43:45;;;;;;;3.33;2.80;;;19.10;99.90;;;;;;5033997;28;20204;-74
2021/06/24 06:46:12;;;;;;;3.22;2.70;;;19.20;99.90;;;;;;5033972;28;20229;-75
2021/06/24 06:48:40;;;;;;;4.63;3.25;;;19.20;99.90;;;;;;5035028;28;20258;-75
2021/06/24 06:51:09;;;;;;;5.20;4.35;;;19.20;99.90;;;;;;5032871;28;20330;-75
2021/06/24 06:53:36;;;;;;;6.35;4.63;;;19.00;99.90;;;;;;5033584;28;20262;-75
2021/06/24 06:56:03;;;;;;;4.75;3.67;;;19.00;99.90;;;;;;5036039;28;20664;-75
2021/06/24 06:58:30;;;;;;;4.80;3.80;;;19.00;99.90;;;;;;5036744;28;20205;-75
2021/06/24 07:00:57;;;;;;;5.07;3.47;;;18.60;99.90;;;;;;5036337;28;20232;-75
2021/06/24 07:03:23;;;;;;;4.07;3.30;;;18.50;99.90;;;;;;5036478;28;20286;-76
2021/06/24 07:05:50;;;;;;;4.18;3.42;;;18.60;99.90;;;;;;5036326;28;20224;-76
2021/06/24 07:08:19;;;;;;;4.25;3.80;;;18.70;99.90;;;;;;5036147;28;20299;-76
2021/06/24 07:10:46;;;;;;;4.18;3.45;;;18.80;99.90;;;;;;5036041;28;20683;-76
2021/06/24 07:13:13;;;;;;;3.83;3.40;;;18.80;99.90;;;;;;5036484;28;20558;-76
2021/06/24 07:15:40;;;;;;;4.65;3.20;;;18.70;99.90;;;;;;5036136;28;20594;-78
2021/06/24 07:18:11;;;;;;;4.00;3.45;;;18.40;99.90;;;;;;5026531;28;20299;-76
2021/06/24 07:20:38;;;;;;;3.25;2.95;;;18.30;99.90;;;;;;5038202;28;20707;-77
2021/06/24 07:23:05;;;;;;;3.60;3.15;;;18.30;99.90;;;;;;5055113;28;20309;-76
2021/06/24 07:25:33;;;;;;;4.55;3.53;;;18.50;99.90;;;;;;5054559;28;20229;-76
2021/06/24 07:28:00;;;;;;;4.40;3.30;;;18.40;99.90;;;;;;5055003;28;20295;-76
2021/06/24 07:30:27;;;;;;;3.63;3.25;;;18.40;99.90;;;;;;5054229;28;20199;-75
2021/06/24 07:32:54;;;;;;;3.45;2.97;;;18.40;99.90;;;;;;5054005;28;20200;-75
2021/06/24 07:35:21;;;;;;;4.88;3.83;;;18.50;99.90;;;;;;5054475;28;20234;-75
2021/06/24 07:37:49;;;;;;;3.20;2.90;;;18.60;99.90;;;;;;5054977;28;20219;-74
2021/06/24 07:40:17;;;;;;;4.13;3.42;;;18.70;99.90;;;;;;5054204;28;20326;-74
2021/06/24 07:42:46;;;;;;;3.70;3.40;;;18.90;99.90;;;;;;5054301;28;20291;-74
2021/06/24 07:45:14;;;;;;;4.35;3.35;;;19.00;99.90;;;;;;5053999;28;20232;-73
2021/06/24 07:47:41;;;;;;;4.03;3.50;;;19.00;99.90;;;;;;5054329;28;20287;-74
2021/06/24 07:50:08;;;;;;;3.45;3.00;;;19.00;99.90;;;;;;5054102;28;20291;-74
2021/06/24 07:52:35;;;;;;;4.07;3.65;;;19.10;99.90;;;;;;5054054;28;20226;-74
2021/06/24 07:55:02;;;;;;;3.40;3.10;;;19.10;99.90;;;;;;5053796;28;20226;-75
2021/06/24 07:57:29;;;;;;;4.10;3.23;;;19.20;99.90;;;;;;5054248;28;20456;-74
2021/06/24 07:59:57;;;;;;;3.97;3.30;;;19.30;99.90;;;;;;5053677;28;20970;-75
2021/06/24 08:02:24;;;;;;;4.30;3.40;;;19.40;99.90;;;;;;5053992;28;20210;-74
2021/06/24 08:04:51;;;;;;;5.60;3.90;;;19.50;99.90;;;;;;5054296;28;20477;-74
2021/06/24 08:07:18;;;;;;;3.80;3.37;;;19.50;99.90;;;;;;5053930;28;20462;-74
2021/06/24 08:09:45;;;;;;;3.33;3.00;;;20.00;99.90;;;;;;5053711;28;20991;-74
2021/06/24 08:12:12;;;;;;;3.10;2.80;;;20.40;99.90;;;;;;5054151;28;20540;-75
2021/06/24 08:14:39;;;;;;;2.70;2.50;;;20.80;99.90;;;;;;5054882;28;20537;-76
2021/06/24 08:17:07;;;;;;;3.10;2.90;;;21.20;99.90;;;;;;5055030;28;20855;-76
2021/06/24 08:19:34;;;;;;;3.97;2.60;;;21.50;99.90;;;;;;5054780;28;20477;-75
2021/06/24 08:22:01;;;;;;;3.43;2.97;;;21.80;99.90;;;;;;5054845;28;20924;-76
2021/06/24 08:24:28;;;;;;;2.83;2.63;;;22.10;99.90;;;;;;5055073;28;20446;-76
2021/06/24 08:26:56;;;;;;;3.53;2.80;;;22.50;99.90;;;;;;5054771;28;20536;-75
2021/06/24 08:29:23;;;;;;;2.40;2.23;;;22.80;99.90;;;;;;5054441;28;20450;-76
2021/06/24 08:31:50;;;;;;;3.27;2.80;;;23.00;99.90;;;;;;5054623;28;20482;-75
2021/06/24 08:34:18;;;;;;;2.90;2.63;;;23.50;99.90;;;;;;5054845;28;20454;-75
2021/06/24 08:36:45;;;;;;;3.60;3.00;;;23.60;99.90;;;;;;5055095;28;20446;-75
2021/06/24 08:39:12;;;;;;;3.00;2.70;;;23.50;99.90;;;;;;5055016;28;20569;-75
2021/06/24 08:41:38;;;;;;;2.83;2.63;;;23.10;99.90;;;;;;5054127;28;20481;-75
2021/06/24 08:44:07;;;;;;;3.40;3.10;;;23.20;99.90;;;;;;5054255;28;20444;-75
2021/06/24 08:46:34;;;;;;;3.13;2.33;;;23.10;99.90;;;;;;5054651;28;20462;-75
2021/06/24 08:49:03;;;;;;;4.07;3.37;;;22.40;99.90;;;;;;5054398;28;20442;-75
2021/06/24 08:51:31;;;;;;;3.00;2.80;;;22.50;99.90;;;;;;5054361;28;20473;-75
2021/06/24 08:54:00;;;;;;;3.90;3.07;;;22.30;99.90;;;;;;5054532;28;20978;-75
2021/06/24 08:56:28;;;;;;;3.40;2.33;;;22.80;99.90;;;;;;5053943;28;20946;-75
2021/06/24 08:58:56;;;;;;;2.97;2.50;;;23.60;99.90;;;;;;5054579;28;20441;-75
2021/06/24 09:01:46;;;;;;;2.73;2.53;;;25.10;99.90;;;;;;5053980;28;20962;-75
2021/06/24 09:04:14;;;;;;;2.30;2.10;;;26.80;99.90;;;;;;5054594;28;20446;-76
2021/06/24 09:06:42;;;;;;;2.70;2.50;;;28.80;98.80;;;;;;5054594;28;20527;-75
2021/06/24 09:09:09;;;;;;;2.40;2.20;;;30.00;91.60;;;;;;5053996;28;20449;-75
2021/06/24 09:11:36;;;;;;;2.70;2.50;;;30.40;91.40;;;;;;5053982;28;20532;-75
2021/06/24 09:14:06;;;;;;;2.90;2.57;;;29.90;91.00;;;;;;5054145;28;20796;-76
2021/06/24 09:16:34;;;;;;;2.87;2.67;;;29.00;92.30;;;;;;5054561;28;20504;-76
2021/06/24 09:19:15;;;;;;;2.80;2.60;;;28.00;95.30;;;;;;5053908;28;20446;-76
2021/06/24 09:21:45;;;;;;;2.67;2.47;;;27.20;95.40;;;;;;5053727;28;20525;-76
2021/06/24 09:24:26;;;;;;;2.73;2.53;;;26.60;97.40;;;;;;5053742;28;20473;-76
2021/06/24 09:26:53;;;;;;;3.00;2.67;;;25.90;99.90;;;;;;5053999;28;20430;-75
2021/06/24 09:29:21;;;;;;;2.80;2.60;;;25.30;99.90;;;;;;5054136;28;20780;-75
2021/06/24 09:31:53;;;;;;;3.30;3.00;;;24.80;99.90;;;;;;5053403;28;20547;-75
2021/06/24 09:34:21;;;;;;;3.30;3.00;;;24.40;99.90;;;;;;5053642;28;20510;-76
2021/06/24 09:36:51;;;;;;;3.07;2.77;;;24.10;99.90;;;;;;5053769;28;20495;-75
2021/06/24 09:39:28;;;;;;;3.40;2.77;;;23.90;99.90;;;;;;5053899;28;20470;-75
2021/06/24 09:42:06;;;;;;;2.90;2.70;;;23.70;99.90;;;;;;5053870;28;20448;-75
2021/06/24 09:44:36;;;;;;;3.10;2.80;;;23.50;99.90;;;;;;5053288;28;20931;-75
2021/06/24 09:47:15;;;;;;;3.20;3.00;;;23.50;99.90;;;;;;5053769;28;20842;-75
2021/06/24 09:49:42;;;;;;;2.77;2.50;;;23.20;99.90;;;;;;5053884;28;20907;-74
2021/06/24 09:52:10;;;;;;;2.90;2.67;;;23.10;99.90;;;;;;5053637;28;20436;-75
2021/06/24 09:54:41;;;;;;;3.60;3.30;;;23.20;99.90;;;;;;5053778;28;20478;-74
2021/06/24 09:57:08;;;;;;;4.40;3.40;;;23.30;99.90;;;;;;5053296;28;20447;-75
2021/06/24 09:59:40;;;;;;;3.33;3.03;;;23.40;99.90;;;;;;5053497;28;20566;-75
2021/06/24 10:02:09;;;;;;;2.87;2.67;;;23.50;99.90;;;;;;5053340;28;20451;-75
2021/06/24 10:04:39;;;;;;;4.00;3.23;;;24.30;99.90;;;;;;5053334;28;20533;-75
2021/06/24 10:07:09;;;;;;;3.87;3.10;;;25.70;99.90;;;;;;5053962;28;20496;-74
2021/06/24 10:09:39;;;;;;;4.07;2.50;;;26.50;99.90;;;;;;5053431;28;20561;-74
2021/06/24 10:12:08;;;;;;;3.37;3.07;;;26.80;99.90;;;;;;5053084;28;20492;-74
2021/06/24 10:14:34;;;;;;;4.73;3.17;;;27.10;99.90;;;;;;5052955;28;20525;-74
2021/06/24 10:17:03;;;;;;;2.93;2.73;;;27.00;97.60;;;;;;5054066;28;20493;-75
2021/06/24 10:19:32;;;;;;;3.40;3.10;;;26.60;99.00;;;;;;5053474;28;20496;-75
2021/06/24 10:22:03;;;;;;;2.73;2.53;;;26.50;99.90;;;;;;5053062;28;20538;-75
2021/06/24 10:24:33;;;;;;;3.10;2.90;;;26.50;99.90;;;;;;5053284;28;20495;-75
2021/06/24 10:27:06;;;;;;;2.67;2.47;;;26.10;99.90;;;;;;5054078;28;20552;-75
2021/06/24 10:29:49;;;;;;;2.67;2.47;;;25.90;99.90;;;;;;5053846;28;20496;-75
2021/06/24 10:32:28;;;;;;;2.57;2.37;;;25.40;99.90;;;;;;5054686;28;20549;-75
2021/06/24 10:34:56;;;;;;;3.33;2.90;;;25.10;99.90;;;;;;5056819;28;20468;-75
2021/06/24 10:37:24;;;;;;;3.00;2.70;;;25.10;99.90;;;;;;5057574;28;20527;-75
2021/06/24 10:39:52;;;;;;;2.60;2.40;;;24.90;99.90;;;;;;5056815;28;20984;-75
2021/06/24 10:42:21;;;;;;;2.90;2.70;;;24.40;99.90;;;;;;5057129;28;20452;-74
2021/06/24 10:44:55;;;;;;;2.60;2.40;;;24.40;99.90;;;;;;5056511;28;20563;-74
2021/06/24 10:47:41;;;;;;;6.70;4.80;;;24.50;99.90;;;;;;5057157;28;20449;-75
2021/06/24 10:50:44;;;;;;;3.90;3.50;;;24.60;99.90;;;;;;5056511;28;20483;-75
2021/06/24 10:53:59;;;;;;;2.93;2.73;;;24.70;99.90;;;;;;5056750;28;20476;-74
2021/06/24 10:56:47;;;;;;;2.33;2.20;;;24.80;99.90;;;;;;4995392;28;20578;-75
2021/06/24 10:59:40;;;;;;;1.97;1.87;;;24.80;99.90;;;;;;5051245;28;20469;-74
2021/06/24 11:02:11;;;;;;;1.83;1.73;;;24.80;99.90;;;;;;5041469;28;20495;-75
2021/06/24 11:04:43;;;;;;;2.90;2.40;;;24.60;99.90;;;;;;5056556;28;20473;-74
2021/06/24 11:07:35;;;;;;;2.30;2.20;;;24.60;99.90;;;;;;5056677;28;20521;-75
2021/06/24 11:10:19;;;;;;;2.17;2.00;;;24.70;99.90;;;;;;5053273;28;20446;-75
2021/06/24 11:12:50;;;;;;;2.10;1.97;;;24.70;99.90;;;;;;5056249;28;20503;-74
2021/06/24 11:15:49;;;;;;;2.30;1.87;;;24.50;99.90;;;;;;5056054;28;20460;-75
2021/06/24 11:18:55;;;;;;;2.20;2.00;;;24.30;99.90;;;;;;5056207;28;20535;-75
2021/06/24 11:21:39;;;;;;;1.83;1.70;;;24.30;99.90;;;;;;5056124;28;20483;-75
2021/06/24 11:24:15;;;;;;;2.00;1.87;;;24.30;99.90;;;;;;5056411;28;20460;-75
2021/06/24 11:26:45;;;;;;;1.70;1.60;;;24.40;99.90;;;;;;5056102;28;20542;-74
2021/06/24 11:29:29;;;;;;;1.90;1.80;;;24.60;99.90;;;;;;5056081;28;20483;-74
2021/06/24 11:32:00;;;;;;;2.27;2.10;;;25.00;99.90;;;;;;5055831;28;20540;-75
2021/06/24 11:34:40;;;;;;;2.60;2.40;;;25.10;99.90;;;;;;5056159;28;20482;-74
2021/06/24 11:37:09;;;;;;;1.97;1.77;;;25.20;99.90;;;;;;5055892;28;20450;-75
2021/06/24 11:39:37;;;;;;;2.20;2.00;;;25.20;99.90;;;;;;5055929;28;21002;-75
2021/06/24 11:42:08;;;;;;;1.60;1.50;;;25.10;99.90;;;;;;5055268;28;20569;-74
2021/06/24 11:44:37;;;;;;;1.60;1.53;;;25.20;99.90;;;;;;5055904;28;20442;-75
2021/06/24 11:47:08;;;;;;;2.30;2.10;;;25.50;99.90;;;;;;5056174;28;20456;-75
2021/06/24 12:01:05;;;;;;;2.13;2.03;;;25.80;99.90;;;;;;5054978;28;20657;-75
2021/06/24 12:03:32;;;;;;;1.70;1.60;;;25.80;99.30;;;;;;5055711;28;20442;-74
2021/06/24 12:05:59;;;;;;;1.93;1.83;;;25.60;99.10;;;;;;5055865;28;20489;-74
2021/06/24 12:08:28;;;;;;;1.40;1.30;;;25.50;97.40;;;;;;5055396;28;20489;-74
2021/06/24 12:11:05;;;;;;;2.10;2.00;;;25.40;97.70;;;;;;5054886;28;20533;-74
2021/06/24 12:13:33;;;;;;;2.03;1.93;;;25.10;99.90;;;;;;5055050;28;20812;-74
2021/06/24 12:16:00;;;;;;;1.80;1.70;;;24.90;99.70;;;;;;5055223;28;20465;-74
2021/06/24 12:18:38;;;;;;;2.80;2.50;;;24.80;99.90;;;;;;5054957;28;20457;-74
2021/06/24 12:21:07;;;;;;;1.80;1.70;;;24.70;99.90;;;;;;5054844;28;20576;-74
2021/06/24 12:23:42;;;;;;;1.77;1.67;;;24.60;99.90;;;;;;5055058;28;20447;-74
2021/06/24 12:26:09;;;;;;;1.90;1.80;;;24.50;99.90;;;;;;5055063;28;20469;-74
2021/06/24 12:28:36;;;;;;;2.00;1.90;;;24.50;99.90;;;;;;5055053;28;20448;-74
2021/06/24 12:31:04;;;;;;;1.20;1.20;;;24.50;99.80;;;;;;5054288;28;20457;-74
2021/06/24 12:33:32;;;;;;;1.47;1.37;;;24.60;98.50;;;;;;5054809;28;20445;-74
2021/06/24 12:36:00;;;;;;;2.13;1.97;;;24.70;98.20;;;;;;5054929;28;20867;-74
2021/06/24 12:38:29;;;;;;;2.80;2.00;;;24.70;97.00;;;;;;5054839;28;20529;-74
2021/06/24 12:40:59;;;;;;;1.23;1.17;;;24.80;96.00;;;;;;5054239;28;20480;-74
2021/06/24 12:43:28;;;;;;;1.13;1.10;;;24.80;96.90;;;;;;5055108;28;20850;-74
2021/06/24 12:45:56;;;;;;;1.27;1.27;;;24.80;96.30;;;;;;5054583;28;20504;-74
2021/06/24 12:48:34;;;;;;;2.57;1.90;;;24.80;97.50;;;;;;5054550;28;20448;-74
2021/06/24 12:51:04;;;;;;;1.37;1.27;;;25.00;97.80;;;;;;5054120;28;20448;-74
2021/06/24 12:53:34;;;;;;;1.27;1.17;;;25.30;95.10;;;;;;5053962;28;20521;-74
2021/06/24 12:56:02;;;;;;;1.20;1.10;;;25.60;93.90;;;;;;5054057;28;20505;-74
2021/06/24 12:58:35;;;;;;;1.10;1.00;;;25.90;92.80;;;;;;5054077;28;20485;-74
2021/06/24 13:01:10;;;;;;;1.00;1.00;;;25.90;90.50;;;;;;5054215;28;20535;-74
2021/06/24 13:03:45;;;;;;;1.50;1.40;;;26.00;91.70;;;;;;5054610;28;20774;-74
2021/06/24 13:06:20;;;;;;;1.10;1.10;;;25.90;92.20;;;;;;5053937;28;20472;-74
2021/06/24 13:09:04;;;;;;;1.23;0.90;;;26.10;90.50;;;;;;5054238;28;20449;-74